sensor_id;sensor_type;location;lat;lon;timestamp;pressure;altitude;pressure_sealevel;temperature;humidity
64644;BME280;51056;50.330;7.914;2023-02-17T00:02:36;101354.41;;;4.74;100.00
64644;BME280;51056;50.330;7.914;2023-02-17T00:05:42;101347.47;;;4.76;100.00
64644;BME280;51056;50.330;7.914;2023-02-17T00:08:46;101355.16;;;4.82;100.00
64644;BME280;51056;50.330;7.914;2023-02-17T00:11:50;101366.31;;;4.84;100.00
64644;BME280;51056;50.330;7.914;2023-02-17T00:14:53;101362.94;;;4.82;100.00
64644;BME280;51056;50.330;7.914;2023-02-17T00:17:57;101366.31;;;4.86;100.00
64644;BME280;51056;50.330;7.914;2023-02-17T00:21:10;101364.59;;;4.86;100.00
64644;BME280;51056;50.330;7.914;2023-02-17T00:24:13;101363.69;;;4.87;100.00
64644;BME280;51056;50.330;7.914;2023-02-17T00:27:17;101355.06;;;4.88;100.00
64644;BME280;51056;50.330;7.914;2023-02-17T00:30:21;101347.19;;;4.93;100.00
64644;BME280;51056;50.330;7.914;2023-02-17T00:33:25;101352.34;;;4.96;100.00
64644;BME280;51056;50.330;7.914;2023-02-17T00:36:28;101351.44;;;4.99;99.66
64644;BME280;51056;50.330;7.914;2023-02-17T00:39:31;101353.94;;;5.05;99.90
64644;BME280;51056;50.330;7.914;2023-02-17T00:42:35;101351.34;;;5.05;99.55
64644;BME280;51056;50.330;7.914;2023-02-17T00:45:38;101347.88;;;5.06;99.79
64644;BME280;51056;50.330;7.914;2023-02-17T00:48:43;101350.44;;;5.07;99.84
64644;BME280;51056;50.330;7.914;2023-02-17T00:51:49;101349.50;;;5.10;99.95
64644;BME280;51056;50.330;7.914;2023-02-17T00:54:52;101352.09;;;5.10;100.00
64644;BME280;51056;50.330;7.914;2023-02-17T00:57:57;101354.75;;;5.07;100.00
64644;BME280;51056;50.330;7.914;2023-02-17T01:01:01;101349.47;;;5.13;100.00
64644;BME280;51056;50.330;7.914;2023-02-17T01:04:08;101345.06;;;5.18;100.00
64644;BME280;51056;50.330;7.914;2023-02-17T01:07:11;101343.56;;;5.05;100.00
64644;BME280;51056;50.330;7.914;2023-02-17T01:10:14;101346.97;;;5.08;100.00
64644;BME280;51056;50.330;7.914;2023-02-17T01:13:18;101335.63;;;5.14;100.00
64644;BME280;51056;50.330;7.914;2023-02-17T01:16:30;101338.34;;;5.08;100.00
64644;BME280;51056;50.330;7.914;2023-02-17T01:19:37;101335.69;;;5.11;100.00
64644;BME280;51056;50.330;7.914;2023-02-17T01:22:40;101332.16;;;5.15;100.00
64644;BME280;51056;50.330;7.914;2023-02-17T01:25:45;101327.75;;;5.20;100.00
64644;BME280;51056;50.330;7.914;2023-02-17T01:28:53;101327.63;;;5.28;100.00
64644;BME280;51056;50.330;7.914;2023-02-17T01:31:56;101328.47;;;5.28;100.00
64644;BME280;51056;50.330;7.914;2023-02-17T01:34:59;101318.25;;;5.21;100.00
64644;BME280;51056;50.330;7.914;2023-02-17T01:38:03;101292.16;;;5.28;100.00
64644;BME280;51056;50.330;7.914;2023-02-17T01:41:08;101299.09;;;5.26;100.00
64644;BME280;51056;50.330;7.914;2023-02-17T01:44:15;101295.88;;;5.15;100.00
64644;BME280;51056;50.330;7.914;2023-02-17T01:47:18;101278.44;;;5.23;100.00
64644;BME280;51056;50.330;7.914;2023-02-17T01:50:27;101269.72;;;5.27;100.00
64644;BME280;51056;50.330;7.914;2023-02-17T01:53:36;101284.16;;;5.41;100.00
64644;BME280;51056;50.330;7.914;2023-02-17T01:56:43;101275.50;;;5.42;100.00
64644;BME280;51056;50.330;7.914;2023-02-17T01:59:47;101267.59;;;5.49;100.00
64644;BME280;51056;50.330;7.914;2023-02-17T02:02:51;101265.78;;;5.53;100.00
64644;BME280;51056;50.330;7.914;2023-02-17T02:05:58;101262.28;;;5.54;100.00
64644;BME280;51056;50.330;7.914;2023-02-17T02:09:07;101246.84;;;5.48;100.00
64644;BME280;51056;50.330;7.914;2023-02-17T02:12:19;101242.38;;;5.54;100.00
64644;BME280;51056;50.330;7.914;2023-02-17T02:15:25;101249.44;;;5.48;100.00
64644;BME280;51056;50.330;7.914;2023-02-17T02:35:54;101211.84;;;5.67;100.00
64644;BME280;51056;50.330;7.914;2023-02-17T02:39:00;101219.63;;;5.67;100.00
64644;BME280;51056;50.330;7.914;2023-02-17T02:42:08;101212.56;;;5.74;100.00
64644;BME280;51056;50.330;7.914;2023-02-17T02:45:12;101206.94;;;5.97;100.00
64644;BME280;51056;50.330;7.914;2023-02-17T02:48:16;101212.19;;;5.94;100.00
64644;BME280;51056;50.330;7.914;2023-02-17T02:51:26;101209.41;;;6.74;100.00
64644;BME280;51056;50.330;7.914;2023-02-17T02:57:45;101211.69;;;6.87;100.00
64644;BME280;51056;50.330;7.914;2023-02-17T03:05:22;101218.91;;;7.08;100.00
64644;BME280;51056;50.330;7.914;2023-02-17T03:11:34;101198.81;;;7.76;100.00
64644;BME280;51056;50.330;7.914;2023-02-17T03:14:40;101188.72;;;7.65;100.00
64644;BME280;51056;50.330;7.914;2023-02-17T03:17:44;101188.88;;;7.59;100.00
64644;BME280;51056;50.330;7.914;2023-02-17T03:20:52;101187.25;;;7.84;100.00
64644;BME280;51056;50.330;7.914;2023-02-17T03:23:59;101189.69;;;7.90;100.00
64644;BME280;51056;50.330;7.914;2023-02-17T03:27:02;101199.16;;;7.93;100.00
64644;BME280;51056;50.330;7.914;2023-02-17T03:30:06;101194.94;;;7.89;100.00
64644;BME280;51056;50.330;7.914;2023-02-17T03:33:10;101199.53;;;7.81;100.00
64644;BME280;51056;50.330;7.914;2023-02-17T03:36:13;101202.41;;;8.00;100.00
64644;BME280;51056;50.330;7.914;2023-02-17T03:39:17;101200.38;;;8.09;100.00
64644;BME280;51056;50.330;7.914;2023-02-17T03:42:20;101197.88;;;8.06;100.00
64644;BME280;51056;50.330;7.914;2023-02-17T03:45:23;101197.88;;;8.06;100.00
64644;BME280;51056;50.330;7.914;2023-02-17T03:48:26;101194.31;;;8.37;100.00
64644;BME280;51056;50.330;7.914;2023-02-17T03:51:30;101194.31;;;8.37;100.00
64644;BME280;51056;50.330;7.914;2023-02-17T03:54:33;101194.59;;;8.28;100.00
64644;BME280;51056;50.330;7.914;2023-02-17T03:57:36;101193.19;;;8.18;100.00
64644;BME280;51056;50.330;7.914;2023-02-17T04:00:40;101191.78;;;8.07;100.00
64644;BME280;51056;50.330;7.914;2023-02-17T04:03:43;101168.66;;;7.97;100.00
64644;BME280;51056;50.330;7.914;2023-02-17T04:06:46;101187.41;;;8.08;100.00
64644;BME280;51056;50.330;7.914;2023-02-17T04:09:49;101186.00;;;7.98;100.00
64644;BME280;51056;50.330;7.914;2023-02-17T04:12:53;101180.00;;;7.94;100.00
64644;BME280;51056;50.330;7.914;2023-02-17T04:15:56;101174.44;;;8.06;100.00
64644;BME280;51056;50.330;7.914;2023-02-17T04:18:59;101169.47;;;8.53;100.00
64644;BME280;51056;50.330;7.914;2023-02-17T04:22:02;101184.09;;;8.31;100.00
64644;BME280;51056;50.330;7.914;2023-02-17T04:25:07;101178.34;;;8.48;100.00
64644;BME280;51056;50.330;7.914;2023-02-17T04:28:10;101207.34;;;8.64;100.00
64644;BME280;51056;50.330;7.914;2023-02-17T04:31:14;101183.53;;;8.49;100.00
64644;BME280;51056;50.330;7.914;2023-02-17T04:34:17;101203.72;;;8.68;100.00
64644;BME280;51056;50.330;7.914;2023-02-17T04:37:20;101173.09;;;8.49;100.00
64644;BME280;51056;50.330;7.914;2023-02-17T04:40:24;101166.16;;;8.48;100.00
64644;BME280;51056;50.330;7.914;2023-02-17T04:43:27;101166.16;;;8.48;100.00
64644;BME280;51056;50.330;7.914;2023-02-17T04:46:30;101168.22;;;8.65;99.21
64644;BME280;51056;50.330;7.914;2023-02-17T04:49:33;101161.28;;;8.64;99.63
64644;BME280;51056;50.330;7.914;2023-02-17T04:52:36;101179.50;;;8.66;98.26
64644;BME280;51056;50.330;7.914;2023-02-17T04:55:40;101189.13;;;8.89;98.26
64644;BME280;51056;50.330;7.914;2023-02-17T04:58:44;101197.63;;;8.69;99.15
64644;BME280;51056;50.330;7.914;2023-02-17T05:01:48;101195.13;;;8.66;100.00
64644;BME280;51056;50.330;7.914;2023-02-17T05:04:52;101195.28;;;8.61;98.89
64644;BME280;51056;50.330;7.914;2023-02-17T05:07:56;101189.63;;;8.75;98.91
64644;BME280;51056;50.330;7.914;2023-02-17T05:11:01;101196.16;;;8.87;98.23
64644;BME280;51056;50.330;7.914;2023-02-17T05:14:10;101201.53;;;8.82;98.27
64644;BME280;51056;50.330;7.914;2023-02-17T05:17:17;101184.41;;;9.00;96.16
64644;BME280;51056;50.330;7.914;2023-02-17T05:20:20;101202.81;;;8.95;96.18
64644;BME280;51056;50.330;7.914;2023-02-17T05:23:23;101188.84;;;8.96;95.69
64644;BME280;51056;50.330;7.914;2023-02-17T05:26:53;101172.31;;;8.97;96.31
64644;BME280;51056;50.330;7.914;2023-02-17T05:30:04;101176.81;;;8.92;96.31
64644;BME280;51056;50.330;7.914;2023-02-17T05:33:07;101186.53;;;8.89;96.41
64644;BME280;51056;50.330;7.914;2023-02-17T05:36:10;101178.63;;;8.90;94.34
64644;BME280;51056;50.330;7.914;2023-02-17T05:39:13;101183.22;;;9.08;95.00
64644;BME280;51056;50.330;7.914;2023-02-17T05:42:16;101188.63;;;9.02;95.43
64644;BME280;51056;50.330;7.914;2023-02-17T05:45:19;101179.13;;;9.01;95.89
64644;BME280;51056;50.330;7.914;2023-02-17T05:48:23;101172.34;;;8.96;95.51
64644;BME280;51056;50.330;7.914;2023-02-17T05:51:27;101173.72;;;9.06;94.52
64644;BME280;51056;50.330;7.914;2023-02-17T05:54:33;101166.16;;;9.00;94.11
64644;BME280;51056;50.330;7.914;2023-02-17T05:57:40;101166.16;;;9.00;94.81
64644;BME280;51056;50.330;7.914;2023-02-17T06:00:43;101147.81;;;9.01;93.78
64644;BME280;51056;50.330;7.914;2023-02-17T06:03:48;101159.72;;;9.08;93.82
64644;BME280;51056;50.330;7.914;2023-02-17T06:06:53;101150.25;;;9.06;93.69
64644;BME280;51056;50.330;7.914;2023-02-17T06:09:56;101150.25;;;9.06;92.87
64644;BME280;51056;50.330;7.914;2023-02-17T06:16:06;101161.16;;;9.17;nan
64644;BME280;51056;50.330;7.914;2023-02-17T06:19:09;101160.75;;;9.28;nan
64644;BME280;51056;50.330;7.914;2023-02-17T06:22:13;101174.03;;;9.22;nan
64644;BME280;51056;50.330;7.914;2023-02-17T06:25:18;101166.66;;;9.33;nan
64644;BME280;51056;50.330;7.914;2023-02-17T06:28:23;101165.03;;;9.30;nan
64644;BME280;51056;50.330;7.914;2023-02-17T06:31:29;101183.28;;;9.30;nan
64644;BME280;51056;50.330;7.914;2023-02-17T06:34:37;101175.41;;;9.32;nan
64644;BME280;51056;50.330;7.914;2023-02-17T06:37:41;101183.91;;;9.37;nan
64644;BME280;51056;50.330;7.914;2023-02-17T06:40:44;101176.47;;;9.50;nan
64644;BME280;51056;50.330;7.914;2023-02-17T06:43:47;101191.38;;;9.48;nan
64644;BME280;51056;50.330;7.914;2023-02-17T06:46:50;101187.22;;;9.42;nan
64644;BME280;51056;50.330;7.914;2023-02-17T06:49:55;101188.13;;;9.41;nan
64644;BME280;51056;50.330;7.914;2023-02-17T06:52:58;101189.91;;;9.63;nan
64644;BME280;51056;50.330;7.914;2023-02-17T06:56:01;101189.91;;;9.63;nan
64644;BME280;51056;50.330;7.914;2023-02-17T06:59:05;101185.97;;;9.52;nan
64644;BME280;51056;50.330;7.914;2023-02-17T07:02:12;101172.69;;;9.59;nan
64644;BME280;51056;50.330;7.914;2023-02-17T07:05:17;101171.03;;;9.56;nan
64644;BME280;51056;50.330;7.914;2023-02-17T07:08:22;101178.13;;;9.52;nan
64644;BME280;51056;50.330;7.914;2023-02-17T07:11:31;101165.41;;;9.67;nan
64644;BME280;51056;50.330;7.914;2023-02-17T07:14:36;101172.44;;;9.65;nan
64644;BME280;51056;50.330;7.914;2023-02-17T07:17:50;101173.06;;;9.71;nan
64644;BME280;51056;50.330;7.914;2023-02-17T07:21:07;101165.72;;;9.81;nan
64644;BME280;51056;50.330;7.914;2023-02-17T07:24:12;101176.16;;;9.81;nan
64644;BME280;51056;50.330;7.914;2023-02-17T07:27:15;101184.09;;;9.80;nan
64644;BME280;51056;50.330;7.914;2023-02-17T07:30:20;101182.31;;;9.80;nan
64644;BME280;51056;50.330;7.914;2023-02-17T07:33:23;101174.38;;;9.83;nan
64644;BME280;51056;50.330;7.914;2023-02-17T07:36:27;101165.41;;;9.89;nan
64644;BME280;51056;50.330;7.914;2023-02-17T07:39:30;101171.63;;;9.86;nan
64644;BME280;51056;50.330;7.914;2023-02-17T07:42:34;101168.94;;;9.88;nan
64644;BME280;51056;50.330;7.914;2023-02-17T07:45:39;101164.75;;;9.84;nan
64644;BME280;51056;50.330;7.914;2023-02-17T07:48:42;101167.06;;;9.91;nan
64644;BME280;51056;50.330;7.914;2023-02-17T07:51:46;101170.13;;;10.02;nan
64644;BME280;51056;50.330;7.914;2023-02-17T07:54:49;101178.69;;;10.06;nan
64644;BME280;51056;50.330;7.914;2023-02-17T07:57:52;101175.88;;;10.11;nan
64644;BME280;51056;50.330;7.914;2023-02-17T08:00:56;101182.69;;;10.15;nan
64644;BME280;51056;50.330;7.914;2023-02-17T08:04:03;101171.84;;;10.24;nan
64644;BME280;51056;50.330;7.914;2023-02-17T08:07:09;101176.34;;;10.20;nan
64644;BME280;51056;50.330;7.914;2023-02-17T08:10:13;101178.78;;;10.25;nan
64644;BME280;51056;50.330;7.914;2023-02-17T08:13:35;101177.91;;;10.26;nan
64644;BME280;51056;50.330;7.914;2023-02-17T08:16:38;101172.91;;;10.20;nan
64644;BME280;51056;50.330;7.914;2023-02-17T08:19:42;101199.28;;;10.14;nan
64644;BME280;51056;50.330;7.914;2023-02-17T08:22:45;101204.69;;;10.09;nan
64644;BME280;51056;50.330;7.914;2023-02-17T08:25:49;101204.19;;;9.99;nan
64644;BME280;51056;50.330;7.914;2023-02-17T08:29:00;101203.41;;;9.97;nan
64644;BME280;51056;50.330;7.914;2023-02-17T08:32:03;101195.69;;;9.94;nan
64644;BME280;51056;50.330;7.914;2023-02-17T08:35:07;101187.91;;;9.93;nan
64644;BME280;51056;50.330;7.914;2023-02-17T08:38:10;101179.22;;;9.92;nan
64644;BME280;51056;50.330;7.914;2023-02-17T08:41:19;101173.09;;;9.93;nan
64644;BME280;51056;50.330;7.914;2023-02-17T08:44:22;101184.16;;;10.00;nan
64644;BME280;51056;50.330;7.914;2023-02-17T08:47:27;101185.84;;;10.01;nan
64644;BME280;51056;50.330;7.914;2023-02-17T08:50:31;101186.56;;;10.05;nan
64644;BME280;51056;50.330;7.914;2023-02-17T08:53:34;101188.94;;;10.11;nan
64644;BME280;51056;50.330;7.914;2023-02-17T08:56:38;101188.81;;;10.14;nan
64644;BME280;51056;50.330;7.914;2023-02-17T08:59:41;101183.59;;;10.14;nan
64644;BME280;51056;50.330;7.914;2023-02-17T09:02:45;101185.19;;;10.18;nan
64644;BME280;51056;50.330;7.914;2023-02-17T09:05:48;101179.09;;;10.17;nan
64644;BME280;51056;50.330;7.914;2023-02-17T09:08:56;101187.66;;;10.21;nan
64644;BME280;51056;50.330;7.914;2023-02-17T09:12:00;101196.16;;;10.28;nan
64644;BME280;51056;50.330;7.914;2023-02-17T09:15:04;101198.78;;;10.28;nan
64644;BME280;51056;50.330;7.914;2023-02-17T09:18:08;101194.25;;;10.31;nan
64644;BME280;51056;50.330;7.914;2023-02-17T09:21:12;101198.25;;;10.40;nan
64644;BME280;51056;50.330;7.914;2023-02-17T09:24:16;101212.84;;;10.45;nan
64644;BME280;51056;50.330;7.914;2023-02-17T09:27:20;101202.50;;;10.42;nan
64644;BME280;51056;50.330;7.914;2023-02-17T09:30:24;101212.84;;;10.45;nan
64644;BME280;51056;50.330;7.914;2023-02-17T09:33:29;101223.78;;;10.55;nan
64644;BME280;51056;50.330;7.914;2023-02-17T09:36:39;101217.56;;;10.58;nan
64644;BME280;51056;50.330;7.914;2023-02-17T09:39:43;101218.38;;;10.60;nan
64644;BME280;51056;50.330;7.914;2023-02-17T09:42:50;101218.88;;;10.68;nan
64644;BME280;51056;50.330;7.914;2023-02-17T09:45:59;101222.31;;;10.70;nan
64644;BME280;51056;50.330;7.914;2023-02-17T09:49:12;101226.09;;;10.83;nan
64644;BME280;51056;50.330;7.914;2023-02-17T09:52:31;101218.66;;;10.94;nan
64644;BME280;51056;50.330;7.914;2023-02-17T09:55:43;101213.41;;;11.15;nan
64644;BME280;51056;50.330;7.914;2023-02-17T09:58:54;101232.25;;;11.23;nan
64644;BME280;51056;50.330;7.914;2023-02-17T10:02:05;101235.56;;;11.66;nan
64644;BME280;51056;50.330;7.914;2023-02-17T10:05:15;101220.16;;;11.98;nan
64644;BME280;51056;50.330;7.914;2023-02-17T10:08:32;101223.53;;;11.62;nan
64644;BME280;51056;50.330;7.914;2023-02-17T10:12:11;101242.03;;;11.38;nan
64644;BME280;51056;50.330;7.914;2023-02-17T10:15:24;101236.16;;;11.33;nan
64644;BME280;51056;50.330;7.914;2023-02-17T10:18:48;101227.13;;;11.40;nan
64644;BME280;51056;50.330;7.914;2023-02-17T10:33:35;101236.66;;;11.41;nan
64644;BME280;51056;50.330;7.914;2023-02-17T10:37:01;101229.25;;;11.51;nan
64644;BME280;51056;50.330;7.914;2023-02-17T10:40:25;101230.88;;;11.54;nan
64644;BME280;51056;50.330;7.914;2023-02-17T10:43:31;101227.06;;;11.61;nan
64644;BME280;51056;50.330;7.914;2023-02-17T10:46:36;101228.84;;;11.60;nan
64644;BME280;51056;50.330;7.914;2023-02-17T10:49:47;101230.47;;;11.63;nan
64644;BME280;51056;50.330;7.914;2023-02-17T10:52:55;101230.34;;;11.66;nan
64644;BME280;51056;50.330;7.914;2023-02-17T11:02:39;101227.97;;;11.60;nan
64644;BME280;51056;50.330;7.914;2023-02-17T11:05:52;101232.03;;;11.67;nan
64644;BME280;51056;50.330;7.914;2023-02-17T11:09:01;101222.69;;;11.61;nan
64644;BME280;51056;50.330;7.914;2023-02-17T11:12:32;101234.78;;;11.64;nan
64644;BME280;51056;50.330;7.914;2023-02-17T11:15:45;101231.13;;;11.68;nan
64644;BME280;51056;50.330;7.914;2023-02-17T11:18:50;101222.09;;;11.74;nan
64644;BME280;51056;50.330;7.914;2023-02-17T11:21:58;101236.84;;;11.76;nan
64644;BME280;51056;50.330;7.914;2023-02-17T11:25:22;101220.00;;;11.82;nan
64644;BME280;51056;50.330;7.914;2023-02-17T11:28:26;101216.41;;;11.84;nan
64644;BME280;51056;50.330;7.914;2023-02-17T11:31:30;101219.44;;;11.75;nan
64644;BME280;51056;50.330;7.914;2023-02-17T11:34:38;101230.63;;;11.79;nan
64644;BME280;51056;50.330;7.914;2023-02-17T11:37:43;101211.94;;;11.86;nan
64644;BME280;51056;50.330;7.914;2023-02-17T11:43:58;101210.38;;;12.01;nan
64644;BME280;51056;50.330;7.914;2023-02-17T11:50:21;101202.28;;;12.06;nan
64644;BME280;51056;50.330;7.914;2023-02-17T12:03:42;101182.84;;;12.29;nan
64644;BME280;51056;50.330;7.914;2023-02-17T12:10:48;101164.94;;;12.37;nan
64644;BME280;51056;50.330;7.914;2023-02-17T12:34:42;101136.03;;;12.39;nan
64644;BME280;51056;50.330;7.914;2023-02-17T12:37:58;101118.75;;;12.34;nan
64644;BME280;51056;50.330;7.914;2023-02-17T12:41:07;101124.13;;;12.31;nan
64644;BME280;51056;50.330;7.914;2023-02-17T12:44:26;101126.16;;;12.44;nan
64644;BME280;51056;50.330;7.914;2023-02-17T12:47:48;101123.53;;;12.44;nan
64644;BME280;51056;50.330;7.914;2023-02-17T12:51:04;101124.06;;;12.50;nan
64644;BME280;51056;50.330;7.914;2023-02-17T12:58:24;101114.44;;;12.51;nan
64644;BME280;51056;50.330;7.914;2023-02-17T13:01:31;101103.16;;;12.49;nan
64644;BME280;51056;50.330;7.914;2023-02-17T13:04:39;101112.88;;;12.47;nan
64644;BME280;51056;50.330;7.914;2023-02-17T13:11:35;101120.28;;;12.56;nan
64644;BME280;51056;50.330;7.914;2023-02-17T13:18:05;101125.94;;;12.48;nan
64644;BME280;51056;50.330;7.914;2023-02-17T13:24:35;101128.47;;;12.50;nan
64644;BME280;51056;50.330;7.914;2023-02-17T13:27:39;101123.00;;;12.54;nan
64644;BME280;51056;50.330;7.914;2023-02-17T13:30:46;101117.50;;;12.59;nan
64644;BME280;51056;50.330;7.914;2023-02-17T13:33:58;101118.28;;;12.61;nan
64644;BME280;51056;50.330;7.914;2023-02-17T13:37:41;101106.69;;;12.65;nan
64644;BME280;51056;50.330;7.914;2023-02-17T13:40:50;101098.41;;;12.73;nan
64644;BME280;51056;50.330;7.914;2023-02-17T13:44:32;101089.47;;;12.77;nan
64644;BME280;51056;50.330;7.914;2023-02-17T13:47:38;101071.84;;;12.79;nan
64644;BME280;51056;50.330;7.914;2023-02-17T13:50:48;101074.63;;;12.93;nan
64644;BME280;51056;50.330;7.914;2023-02-17T13:53:52;101090.84;;;12.84;nan
64644;BME280;51056;50.330;7.914;2023-02-17T14:01:15;101049.84;;;12.82;nan
64644;BME280;51056;50.330;7.914;2023-02-17T14:04:24;101071.63;;;12.84;nan
64644;BME280;51056;50.330;7.914;2023-02-17T14:07:33;101043.44;;;12.87;nan
64644;BME280;51056;50.330;7.914;2023-02-17T14:10:37;101053.09;;;12.87;nan
64644;BME280;51056;50.330;7.914;2023-02-17T14:13:43;101043.34;;;12.89;nan
64644;BME280;51056;50.330;7.914;2023-02-17T14:16:55;101052.16;;;12.88;nan
64644;BME280;51056;50.330;7.914;2023-02-17T14:20:28;101069.38;;;12.93;nan
64644;BME280;51056;50.330;7.914;2023-02-17T14:23:45;101060.66;;;12.93;nan
64644;BME280;51056;50.330;7.914;2023-02-17T14:26:50;101079.03;;;12.93;nan
64644;BME280;51056;50.330;7.914;2023-02-17T14:29:58;101075.78;;;12.88;nan
64644;BME280;51056;50.330;7.914;2023-02-17T14:36:26;101085.28;;;12.90;nan
64644;BME280;51056;50.330;7.914;2023-02-17T14:39:30;101083.66;;;12.88;nan
64644;BME280;51056;50.330;7.914;2023-02-17T14:42:34;101087.38;;;12.84;nan
64644;BME280;51056;50.330;7.914;2023-02-17T14:45:38;101085.28;;;12.90;nan
64644;BME280;51056;50.330;7.914;2023-02-17T14:48:41;101095.00;;;12.88;nan
64644;BME280;51056;50.330;7.914;2023-02-17T14:51:47;101086.44;;;12.85;nan
64644;BME280;51056;50.330;7.914;2023-02-17T14:55:35;101084.75;;;12.84;nan
64644;BME280;51056;50.330;7.914;2023-02-17T14:58:45;101087.69;;;12.77;nan
64644;BME280;51056;50.330;7.914;2023-02-17T15:01:50;101096.78;;;12.88;nan
64644;BME280;51056;50.330;7.914;2023-02-17T15:04:54;101105.59;;;12.87;nan
64644;BME280;51056;50.330;7.914;2023-02-17T15:07:59;101101.59;;;12.79;nan
64644;BME280;51056;50.330;7.914;2023-02-17T15:11:04;101109.28;;;12.83;nan
64644;BME280;51056;50.330;7.914;2023-02-17T15:14:22;101107.59;;;12.82;nan
64644;BME280;51056;50.330;7.914;2023-02-17T15:17:39;101105.91;;;12.80;nan
64644;BME280;51056;50.330;7.914;2023-02-17T15:20:44;101110.16;;;12.83;nan
64644;BME280;51056;50.330;7.914;2023-02-17T15:23:53;101112.69;;;12.85;nan
64644;BME280;51056;50.330;7.914;2023-02-17T15:26:56;101099.66;;;12.83;nan
64644;BME280;51056;50.330;7.914;2023-02-17T15:30:03;101106.28;;;12.90;nan
64644;BME280;51056;50.330;7.914;2023-02-17T15:33:13;101095.78;;;12.90;nan
64644;BME280;51056;50.330;7.914;2023-02-17T15:36:18;101100.34;;;12.87;nan
64644;BME280;51056;50.330;7.914;2023-02-17T15:39:22;101094.94;;;12.90;nan
64644;BME280;51056;50.330;7.914;2023-02-17T15:42:28;101094.09;;;12.89;nan
64644;BME280;51056;50.330;7.914;2023-02-17T15:45:32;101102.03;;;12.88;nan
64644;BME280;51056;50.330;7.914;2023-02-17T15:48:39;101113.16;;;12.93;nan
64644;BME280;51056;50.330;7.914;2023-02-17T15:51:43;101100.88;;;12.93;nan
64644;BME280;51056;50.330;7.914;2023-02-17T15:54:46;101104.44;;;12.92;nan
64644;BME280;51056;50.330;7.914;2023-02-17T15:57:58;101120.41;;;12.88;nan
64644;BME280;51056;50.330;7.914;2023-02-17T16:01:30;101109.31;;;12.98;nan
64644;BME280;51056;50.330;7.914;2023-02-17T16:04:34;101129.63;;;12.95;nan
64644;BME280;51056;50.330;7.914;2023-02-17T16:07:38;101105.09;;;12.96;nan
64644;BME280;51056;50.330;7.914;2023-02-17T16:10:45;101104.59;;;12.89;nan
64644;BME280;51056;50.330;7.914;2023-02-17T16:13:49;101100.50;;;12.84;nan
64644;BME280;51056;50.330;7.914;2023-02-17T16:16:56;101103.19;;;12.82;nan
64644;BME280;51056;50.330;7.914;2023-02-17T16:20:04;101107.59;;;12.82;nan
64644;BME280;51056;50.330;7.914;2023-02-17T16:23:11;101099.81;;;12.80;nan
64644;BME280;51056;50.330;7.914;2023-02-17T16:26:34;101103.66;;;12.90;nan
64644;BME280;51056;50.330;7.914;2023-02-17T16:29:39;101096.47;;;12.94;nan
64644;BME280;51056;50.330;7.914;2023-02-17T16:32:44;101100.94;;;12.92;nan
64644;BME280;51056;50.330;7.914;2023-02-17T16:35:53;101091.69;;;12.85;nan
64644;BME280;51056;50.330;7.914;2023-02-17T16:39:00;101115.09;;;12.89;nan
64644;BME280;51056;50.330;7.914;2023-02-17T16:42:05;101120.25;;;12.91;nan
64644;BME280;51056;50.330;7.914;2023-02-17T16:45:22;101107.13;;;12.91;nan
64644;BME280;51056;50.330;7.914;2023-02-17T16:48:28;101103.03;;;12.85;nan
64644;BME280;51056;50.330;7.914;2023-02-17T16:51:31;101113.47;;;12.87;nan
64644;BME280;51056;50.330;7.914;2023-02-17T16:54:34;101113.53;;;12.85;nan
64644;BME280;51056;50.330;7.914;2023-02-17T16:57:37;101114.78;;;12.78;nan
64644;BME280;51056;50.330;7.914;2023-02-17T17:00:40;101110.38;;;12.78;nan
64644;BME280;51056;50.330;7.914;2023-02-17T17:03:44;101115.72;;;12.77;nan
64644;BME280;51056;50.330;7.914;2023-02-17T17:06:49;101122.50;;;12.81;nan
64644;BME280;51056;50.330;7.914;2023-02-17T17:09:53;101124.59;;;12.74;nan
64644;BME280;51056;50.330;7.914;2023-02-17T17:12:57;101142.81;;;12.77;nan
64644;BME280;51056;50.330;7.914;2023-02-17T17:16:01;101133.84;;;12.82;nan
64644;BME280;51056;50.330;7.914;2023-02-17T17:19:05;101141.66;;;12.83;nan
64644;BME280;51056;50.330;7.914;2023-02-17T17:22:10;101143.03;;;12.90;nan
64644;BME280;51056;50.330;7.914;2023-02-17T17:25:14;101146.22;;;12.79;nan
64644;BME280;51056;50.330;7.914;2023-02-17T17:28:19;101159.41;;;12.78;nan
64644;BME280;51056;50.330;7.914;2023-02-17T17:31:22;101167.00;;;12.83;nan
64644;BME280;51056;50.330;7.914;2023-02-17T17:34:26;101184.47;;;12.84;nan
64644;BME280;51056;50.330;7.914;2023-02-17T17:37:31;101191.56;;;12.82;nan
64644;BME280;51056;50.330;7.914;2023-02-17T17:40:35;101189.09;;;12.78;nan
64644;BME280;51056;50.330;7.914;2023-02-17T17:43:58;101200.38;;;12.80;nan
64644;BME280;51056;50.330;7.914;2023-02-17T17:47:12;101212.97;;;12.74;nan
64644;BME280;51056;50.330;7.914;2023-02-17T17:50:22;101230.16;;;12.62;nan
64644;BME280;51056;50.330;7.914;2023-02-17T17:53:29;101247.34;;;12.50;nan
64644;BME280;51056;50.330;7.914;2023-02-17T17:56:42;101238.09;;;12.43;nan
64644;BME280;51056;50.330;7.914;2023-02-17T17:59:58;101239.50;;;12.31;nan
64644;BME280;51056;50.330;7.914;2023-02-17T18:03:04;101261.94;;;12.20;nan
64644;BME280;51056;50.330;7.914;2023-02-17T18:06:42;101260.47;;;12.14;nan
64644;BME280;51056;50.330;7.914;2023-02-17T18:09:49;101276.97;;;11.97;nan
64644;BME280;51056;50.330;7.914;2023-02-17T18:12:55;101287.66;;;11.93;nan
64644;BME280;51056;50.330;7.914;2023-02-17T18:16:00;101292.31;;;11.86;nan
64644;BME280;51056;50.330;7.914;2023-02-17T18:19:06;101296.22;;;11.77;nan
64644;BME280;51056;50.330;7.914;2023-02-17T18:22:11;101298.09;;;11.74;nan
64644;BME280;51056;50.330;7.914;2023-02-17T18:25:16;101308.66;;;11.72;nan
64644;BME280;51056;50.330;7.914;2023-02-17T18:28:20;101312.19;;;11.71;nan
64644;BME280;51056;50.330;7.914;2023-02-17T18:31:26;101311.41;;;11.69;nan